sensor_id;sensor_type;location;lat;lon;timestamp;P1;durP1;ratioP1;P2;durP2;ratioP2
43311;SDS011;30041;48.300;16.352;2023-02-01T00:00:11;0.60;;;0.30;;
43311;SDS011;30041;48.300;16.352;2023-02-01T00:02:37;0.88;;;0.40;;
43311;SDS011;30041;48.300;16.352;2023-02-01T00:05:02;0.95;;;0.40;;
43311;SDS011;30041;48.300;16.352;2023-02-01T00:07:28;1.08;;;0.40;;
43311;SDS011;30041;48.300;16.352;2023-02-01T00:09:53;0.47;;;0.20;;
43311;SDS011;30041;48.300;16.352;2023-02-01T00:12:19;1.13;;;0.30;;
43311;SDS011;30041;48.300;16.352;2023-02-01T00:14:45;0.73;;;0.28;;
43311;SDS011;30041;48.300;16.352;2023-02-01T00:17:11;1.30;;;0.30;;
43311;SDS011;30041;48.300;16.352;2023-02-01T00:19:36;1.42;;;0.25;;
43311;SDS011;30041;48.300;16.352;2023-02-01T00:22:02;0.50;;;0.20;;
43311;SDS011;30041;48.300;16.352;2023-02-01T00:24:27;0.47;;;0.20;;
43311;SDS011;30041;48.300;16.352;2023-02-01T00:26:53;0.47;;;0.20;;
43311;SDS011;30041;48.300;16.352;2023-02-01T00:29:19;0.35;;;0.25;;
43311;SDS011;30041;48.300;16.352;2023-02-01T00:31:45;0.47;;;0.30;;
43311;SDS011;30041;48.300;16.352;2023-02-01T00:34:12;0.50;;;0.20;;
43311;SDS011;30041;48.300;16.352;2023-02-01T00:36:40;0.70;;;0.30;;
43311;SDS011;30041;48.300;16.352;2023-02-01T00:39:07;0.60;;;0.20;;
43311;SDS011;30041;48.300;16.352;2023-02-01T00:41:33;0.50;;;0.20;;
43311;SDS011;30041;48.300;16.352;2023-02-01T00:43:58;0.40;;;0.30;;
43311;SDS011;30041;48.300;16.352;2023-02-01T00:46:24;0.45;;;0.30;;
43311;SDS011;30041;48.300;16.352;2023-02-01T00:48:49;0.45;;;0.30;;
43311;SDS011;30041;48.300;16.352;2023-02-01T00:51:16;1.63;;;0.38;;
43311;SDS011;30041;48.300;16.352;2023-02-01T00:53:44;0.43;;;0.20;;
43311;SDS011;30041;48.300;16.352;2023-02-01T00:56:09;0.68;;;0.30;;
43311;SDS011;30041;48.300;16.352;2023-02-01T00:58:35;0.30;;;0.20;;
43311;SDS011;30041;48.300;16.352;2023-02-01T01:01:03;0.38;;;0.10;;
43311;SDS011;30041;48.300;16.352;2023-02-01T01:03:29;0.32;;;0.20;;
43311;SDS011;30041;48.300;16.352;2023-02-01T01:05:56;0.47;;;0.28;;
43311;SDS011;30041;48.300;16.352;2023-02-01T01:08:24;0.30;;;0.22;;
43311;SDS011;30041;48.300;16.352;2023-02-01T01:10:50;0.80;;;0.30;;
43311;SDS011;30041;48.300;16.352;2023-02-01T01:13:15;0.45;;;0.20;;
43311;SDS011;30041;48.300;16.352;2023-02-01T01:15:41;0.10;;;0.10;;
43311;SDS011;30041;48.300;16.352;2023-02-01T01:18:07;0.30;;;0.17;;
43311;SDS011;30041;48.300;16.352;2023-02-01T01:20:34;0.20;;;0.10;;
43311;SDS011;30041;48.300;16.352;2023-02-01T01:23:01;0.50;;;0.10;;
43311;SDS011;30041;48.300;16.352;2023-02-01T01:25:27;0.55;;;0.20;;
43311;SDS011;30041;48.300;16.352;2023-02-01T01:27:53;0.45;;;0.10;;
43311;SDS011;30041;48.300;16.352;2023-02-01T01:30:18;0.70;;;0.20;;
43311;SDS011;30041;48.300;16.352;2023-02-01T01:32:44;0.68;;;0.30;;
43311;SDS011;30041;48.300;16.352;2023-02-01T01:35:10;0.30;;;0.20;;
43311;SDS011;30041;48.300;16.352;2023-02-01T01:37:36;0.10;;;0.10;;
43311;SDS011;30041;48.300;16.352;2023-02-01T01:40:02;0.45;;;0.22;;
43311;SDS011;30041;48.300;16.352;2023-02-01T01:42:29;0.25;;;0.13;;
43311;SDS011;30041;48.300;16.352;2023-02-01T01:47:39;0.25;;;0.20;;
43311;SDS011;30041;48.300;16.352;2023-02-01T01:50:10;0.10;;;0.10;;
43311;SDS011;30041;48.300;16.352;2023-02-01T01:52:40;0.20;;;0.20;;
43311;SDS011;30041;48.300;16.352;2023-02-01T01:55:06;0.43;;;0.20;;
43311;SDS011;30041;48.300;16.352;2023-02-01T01:57:34;0.10;;;0.10;;
43311;SDS011;30041;48.300;16.352;2023-02-01T02:00:13;0.57;;;0.20;;
43311;SDS011;30041;48.300;16.352;2023-02-01T02:02:41;0.55;;;0.10;;
43311;SDS011;30041;48.300;16.352;2023-02-01T02:05:10;0.20;;;0.20;;
43311;SDS011;30041;48.300;16.352;2023-02-01T02:07:39;0.10;;;0.10;;
43311;SDS011;30041;48.300;16.352;2023-02-01T02:10:08;0.50;;;0.20;;
43311;SDS011;30041;48.300;16.352;2023-02-01T02:12:39;0.38;;;0.15;;
43311;SDS011;30041;48.300;16.352;2023-02-01T02:15:09;0.22;;;0.20;;
43311;SDS011;30041;48.300;16.352;2023-02-01T02:17:46;0.85;;;0.20;;
43311;SDS011;30041;48.300;16.352;2023-02-01T02:20:39;2.28;;;0.17;;
43311;SDS011;30041;48.300;16.352;2023-02-01T02:23:32;0.20;;;0.10;;
43311;SDS011;30041;48.300;16.352;2023-02-01T02:29:15;0.75;;;0.20;;
43311;SDS011;30041;48.300;16.352;2023-02-01T02:34:52;0.50;;;0.10;;
43311;SDS011;30041;48.300;16.352;2023-02-01T02:37:41;0.28;;;0.10;;
43311;SDS011;30041;48.300;16.352;2023-02-01T02:43:10;0.10;;;0.10;;
43311;SDS011;30041;48.300;16.352;2023-02-01T02:45:54;0.28;;;0.20;;
43311;SDS011;30041;48.300;16.352;2023-02-01T02:48:30;0.20;;;0.10;;
43311;SDS011;30041;48.300;16.352;2023-02-01T02:51:04;0.20;;;0.10;;
43311;SDS011;30041;48.300;16.352;2023-02-01T02:56:13;0.20;;;0.17;;
43311;SDS011;30041;48.300;16.352;2023-02-01T02:58:40;0.17;;;0.10;;
43311;SDS011;30041;48.300;16.352;2023-02-01T03:01:08;0.25;;;0.10;;
43311;SDS011;30041;48.300;16.352;2023-02-01T03:03:40;0.15;;;0.10;;
43311;SDS011;30041;48.300;16.352;2023-02-01T03:06:10;0.20;;;0.10;;
43311;SDS011;30041;48.300;16.352;2023-02-01T03:08:38;0.70;;;0.20;;
43311;SDS011;30041;48.300;16.352;2023-02-01T03:11:05;0.10;;;0.10;;
43311;SDS011;30041;48.300;16.352;2023-02-01T03:13:35;0.22;;;0.10;;
43311;SDS011;30041;48.300;16.352;2023-02-01T03:16:09;0.30;;;0.05;;
43311;SDS011;30041;48.300;16.352;2023-02-01T03:21:16;0.75;;;0.17;;
43311;SDS011;30041;48.300;16.352;2023-02-01T03:23:47;0.30;;;0.10;;
43311;SDS011;30041;48.300;16.352;2023-02-01T03:26:16;0.30;;;0.10;;
43311;SDS011;30041;48.300;16.352;2023-02-01T03:28:47;0.15;;;0.10;;
43311;SDS011;30041;48.300;16.352;2023-02-01T03:31:17;0.10;;;0.10;;
43311;SDS011;30041;48.300;16.352;2023-02-01T03:33:43;0.05;;;0.05;;
43311;SDS011;30041;48.300;16.352;2023-02-01T03:36:43;0.35;;;0.10;;
43311;SDS011;30041;48.300;16.352;2023-02-01T03:39:14;0.30;;;0.10;;
43311;SDS011;30041;48.300;16.352;2023-02-01T03:41:53;0.40;;;0.13;;
43311;SDS011;30041;48.300;16.352;2023-02-01T03:44:22;0.05;;;0.05;;
43311;SDS011;30041;48.300;16.352;2023-02-01T03:49:50;0.20;;;0.10;;
43311;SDS011;30041;48.300;16.352;2023-02-01T03:52:22;0.35;;;0.10;;
43311;SDS011;30041;48.300;16.352;2023-02-01T03:54:52;0.10;;;0.08;;
43311;SDS011;30041;48.300;16.352;2023-02-01T03:57:20;0.25;;;0.10;;
43311;SDS011;30041;48.300;16.352;2023-02-01T03:59:51;0.10;;;0.10;;
43311;SDS011;30041;48.300;16.352;2023-02-01T04:02:17;0.10;;;0.10;;
43311;SDS011;30041;48.300;16.352;2023-02-01T04:04:42;0.10;;;0.08;;
43311;SDS011;30041;48.300;16.352;2023-02-01T04:07:08;0.05;;;0.03;;
43311;SDS011;30041;48.300;16.352;2023-02-01T04:09:33;0.38;;;0.20;;
43311;SDS011;30041;48.300;16.352;2023-02-01T04:11:59;0.30;;;0.10;;
43311;SDS011;30041;48.300;16.352;2023-02-01T04:14:24;0.00;;;0.00;;
43311;SDS011;30041;48.300;16.352;2023-02-01T04:16:50;0.10;;;0.10;;
43311;SDS011;30041;48.300;16.352;2023-02-01T04:19:15;0.20;;;0.08;;
43311;SDS011;30041;48.300;16.352;2023-02-01T04:21:41;0.38;;;0.10;;
43311;SDS011;30041;48.300;16.352;2023-02-01T04:24:07;0.00;;;0.00;;
43311;SDS011;30041;48.300;16.352;2023-02-01T04:26:32;0.10;;;0.10;;
43311;SDS011;30041;48.300;16.352;2023-02-01T04:28:58;0.20;;;0.08;;
43311;SDS011;30041;48.300;16.352;2023-02-01T04:31:23;0.30;;;0.20;;
43311;SDS011;30041;48.300;16.352;2023-02-01T04:33:49;0.10;;;0.08;;
43311;SDS011;30041;48.300;16.352;2023-02-01T04:36:14;0.10;;;0.10;;
43311;SDS011;30041;48.300;16.352;2023-02-01T04:38:40;0.10;;;0.03;;
43311;SDS011;30041;48.300;16.352;2023-02-01T04:41:05;0.10;;;0.00;;
43311;SDS011;30041;48.300;16.352;2023-02-01T04:43:31;0.20;;;0.10;;
43311;SDS011;30041;48.300;16.352;2023-02-01T04:45:56;0.10;;;0.10;;
43311;SDS011;30041;48.300;16.352;2023-02-01T04:48:22;0.43;;;0.10;;
43311;SDS011;30041;48.300;16.352;2023-02-01T04:50:48;0.10;;;0.10;;
43311;SDS011;30041;48.300;16.352;2023-02-01T04:53:14;0.22;;;0.10;;
43311;SDS011;30041;48.300;16.352;2023-02-01T04:55:40;0.20;;;0.10;;
43311;SDS011;30041;48.300;16.352;2023-02-01T04:58:06;0.03;;;0.03;;
43311;SDS011;30041;48.300;16.352;2023-02-01T05:00:31;0.10;;;0.10;;
43311;SDS011;30041;48.300;16.352;2023-02-01T05:02:57;0.10;;;0.10;;
43311;SDS011;30041;48.300;16.352;2023-02-01T05:05:22;0.10;;;0.00;;
43311;SDS011;30041;48.300;16.352;2023-02-01T05:07:47;0.00;;;0.00;;
43311;SDS011;30041;48.300;16.352;2023-02-01T05:10:13;0.15;;;0.10;;
43311;SDS011;30041;48.300;16.352;2023-02-01T05:12:38;0.10;;;0.10;;
43311;SDS011;30041;48.300;16.352;2023-02-01T05:15:04;0.22;;;0.10;;
43311;SDS011;30041;48.300;16.352;2023-02-01T05:17:30;0.13;;;0.00;;
43311;SDS011;30041;48.300;16.352;2023-02-01T05:19:55;0.55;;;0.17;;
43311;SDS011;30041;48.300;16.352;2023-02-01T05:22:21;0.08;;;0.00;;
43311;SDS011;30041;48.300;16.352;2023-02-01T05:24:46;0.00;;;0.00;;
43311;SDS011;30041;48.300;16.352;2023-02-01T05:27:12;0.00;;;0.00;;
43311;SDS011;30041;48.300;16.352;2023-02-01T05:29:37;0.00;;;0.00;;
43311;SDS011;30041;48.300;16.352;2023-02-01T05:32:03;0.00;;;0.00;;
43311;SDS011;30041;48.300;16.352;2023-02-01T05:34:29;0.10;;;0.00;;
43311;SDS011;30041;48.300;16.352;2023-02-01T05:36:54;0.00;;;0.00;;
43311;SDS011;30041;48.300;16.352;2023-02-01T05:39:20;0.10;;;0.00;;
43311;SDS011;30041;48.300;16.352;2023-02-01T05:41:45;0.00;;;0.00;;
43311;SDS011;30041;48.300;16.352;2023-02-01T05:44:11;0.00;;;0.00;;
43311;SDS011;30041;48.300;16.352;2023-02-01T05:46:36;0.05;;;0.00;;
43311;SDS011;30041;48.300;16.352;2023-02-01T05:49:03;0.30;;;0.00;;
43311;SDS011;30041;48.300;16.352;2023-02-01T05:51:29;0.00;;;0.00;;
43311;SDS011;30041;48.300;16.352;2023-02-01T05:53:55;0.00;;;0.00;;
43311;SDS011;30041;48.300;16.352;2023-02-01T05:56:20;0.00;;;0.00;;
43311;SDS011;30041;48.300;16.352;2023-02-01T05:58:46;0.00;;;0.00;;
43311;SDS011;30041;48.300;16.352;2023-02-01T06:01:11;0.00;;;0.00;;
43311;SDS011;30041;48.300;16.352;2023-02-01T06:03:37;0.00;;;0.00;;
43311;SDS011;30041;48.300;16.352;2023-02-01T06:06:02;0.00;;;0.00;;
43311;SDS011;30041;48.300;16.352;2023-02-01T06:08:28;0.00;;;0.00;;
43311;SDS011;30041;48.300;16.352;2023-02-01T06:10:57;0.05;;;0.00;;
43311;SDS011;30041;48.300;16.352;2023-02-01T06:13:27;0.10;;;0.00;;
43311;SDS011;30041;48.300;16.352;2023-02-01T06:15:53;0.10;;;0.00;;
43311;SDS011;30041;48.300;16.352;2023-02-01T06:18:18;0.00;;;0.00;;
43311;SDS011;30041;48.300;16.352;2023-02-01T06:20:44;0.00;;;0.00;;
43311;SDS011;30041;48.300;16.352;2023-02-01T06:23:12;0.00;;;0.00;;
43311;SDS011;30041;48.300;16.352;2023-02-01T06:25:37;0.00;;;0.00;;
43311;SDS011;30041;48.300;16.352;2023-02-01T06:28:03;0.00;;;0.00;;
43311;SDS011;30041;48.300;16.352;2023-02-01T06:30:28;0.00;;;0.00;;
43311;SDS011;30041;48.300;16.352;2023-02-01T06:32:53;0.00;;;0.00;;
43311;SDS011;30041;48.300;16.352;2023-02-01T06:35:19;0.00;;;0.00;;
43311;SDS011;30041;48.300;16.352;2023-02-01T06:37:45;0.00;;;0.00;;
43311;SDS011;30041;48.300;16.352;2023-02-01T06:40:10;0.35;;;0.10;;
43311;SDS011;30041;48.300;16.352;2023-02-01T06:42:36;0.00;;;0.00;;
43311;SDS011;30041;48.300;16.352;2023-02-01T06:45:02;0.00;;;0.00;;
43311;SDS011;30041;48.300;16.352;2023-02-01T06:47:27;0.00;;;0.00;;
43311;SDS011;30041;48.300;16.352;2023-02-01T06:49:53;0.00;;;0.00;;
43311;SDS011;30041;48.300;16.352;2023-02-01T06:52:18;0.00;;;0.00;;
43311;SDS011;30041;48.300;16.352;2023-02-01T06:54:44;0.00;;;0.00;;
43311;SDS011;30041;48.300;16.352;2023-02-01T06:57:09;0.10;;;0.00;;
43311;SDS011;30041;48.300;16.352;2023-02-01T06:59:35;0.00;;;0.00;;
43311;SDS011;30041;48.300;16.352;2023-02-01T07:02:01;0.10;;;0.00;;
43311;SDS011;30041;48.300;16.352;2023-02-01T07:04:26;0.10;;;0.00;;
43311;SDS011;30041;48.300;16.352;2023-02-01T07:06:51;0.22;;;0.00;;
43311;SDS011;30041;48.300;16.352;2023-02-01T07:09:17;0.00;;;0.00;;
43311;SDS011;30041;48.300;16.352;2023-02-01T07:11:42;0.10;;;0.00;;
43311;SDS011;30041;48.300;16.352;2023-02-01T07:14:09;0.00;;;0.00;;
43311;SDS011;30041;48.300;16.352;2023-02-01T07:16:34;2.10;;;0.00;;
43311;SDS011;30041;48.300;16.352;2023-02-01T07:19:00;7.68;;;0.43;;
43311;SDS011;30041;48.300;16.352;2023-02-01T07:21:25;4.53;;;0.35;;
43311;SDS011;30041;48.300;16.352;2023-02-01T07:23:51;7.18;;;0.60;;
43311;SDS011;30041;48.300;16.352;2023-02-01T07:26:16;6.53;;;0.45;;
43311;SDS011;30041;48.300;16.352;2023-02-01T07:28:42;6.22;;;0.60;;
43311;SDS011;30041;48.300;16.352;2023-02-01T07:31:09;6.03;;;0.82;;
43311;SDS011;30041;48.300;16.352;2023-02-01T07:33:42;3.90;;;0.40;;
43311;SDS011;30041;48.300;16.352;2023-02-01T07:36:10;1.55;;;0.40;;
43311;SDS011;30041;48.300;16.352;2023-02-01T07:38:38;2.63;;;0.55;;
43311;SDS011;30041;48.300;16.352;2023-02-01T07:41:04;3.47;;;0.60;;
43311;SDS011;30041;48.300;16.352;2023-02-01T07:43:31;2.42;;;0.40;;
43311;SDS011;30041;48.300;16.352;2023-02-01T07:45:57;4.65;;;0.65;;
43311;SDS011;30041;48.300;16.352;2023-02-01T07:48:23;1.98;;;0.50;;
43311;SDS011;30041;48.300;16.352;2023-02-01T07:50:59;2.67;;;0.60;;
43311;SDS011;30041;48.300;16.352;2023-02-01T07:53:26;3.85;;;0.55;;
43311;SDS011;30041;48.300;16.352;2023-02-01T07:55:53;1.35;;;0.40;;
43311;SDS011;30041;48.300;16.352;2023-02-01T07:58:19;2.88;;;0.50;;
43311;SDS011;30041;48.300;16.352;2023-02-01T08:00:44;4.75;;;0.40;;
43311;SDS011;30041;48.300;16.352;2023-02-01T08:03:10;2.08;;;0.40;;
43311;SDS011;30041;48.300;16.352;2023-02-01T08:05:35;4.63;;;0.63;;
43311;SDS011;30041;48.300;16.352;2023-02-01T08:08:00;1.13;;;0.30;;
43311;SDS011;30041;48.300;16.352;2023-02-01T08:10:26;2.33;;;0.57;;
43311;SDS011;30041;48.300;16.352;2023-02-01T08:12:51;1.02;;;0.38;;
43311;SDS011;30041;48.300;16.352;2023-02-01T08:15:17;1.60;;;0.47;;
43311;SDS011;30041;48.300;16.352;2023-02-01T08:17:49;2.08;;;0.60;;
43311;SDS011;30041;48.300;16.352;2023-02-01T08:20:16;2.90;;;0.38;;
43311;SDS011;30041;48.300;16.352;2023-02-01T08:22:42;2.97;;;0.50;;
43311;SDS011;30041;48.300;16.352;2023-02-01T08:25:08;1.83;;;0.30;;
43311;SDS011;30041;48.300;16.352;2023-02-01T08:27:34;2.53;;;0.50;;
43311;SDS011;30041;48.300;16.352;2023-02-01T08:30:00;3.17;;;0.70;;
43311;SDS011;30041;48.300;16.352;2023-02-01T08:32:26;1.80;;;0.35;;
43311;SDS011;30041;48.300;16.352;2023-02-01T08:34:52;4.13;;;0.57;;
43311;SDS011;30041;48.300;16.352;2023-02-01T08:37:18;4.30;;;0.55;;
43311;SDS011;30041;48.300;16.352;2023-02-01T08:39:43;4.28;;;0.85;;
43311;SDS011;30041;48.300;16.352;2023-02-01T08:42:08;4.35;;;0.50;;
43311;SDS011;30041;48.300;16.352;2023-02-01T08:44:34;3.58;;;0.60;;
43311;SDS011;30041;48.300;16.352;2023-02-01T08:46:59;3.22;;;0.50;;
43311;SDS011;30041;48.300;16.352;2023-02-01T08:49:25;2.45;;;0.60;;
43311;SDS011;30041;48.300;16.352;2023-02-01T08:51:51;2.83;;;0.80;;
43311;SDS011;30041;48.300;16.352;2023-02-01T08:54:16;1.73;;;0.60;;
43311;SDS011;30041;48.300;16.352;2023-02-01T08:56:42;3.90;;;0.80;;
43311;SDS011;30041;48.300;16.352;2023-02-01T08:59:07;3.08;;;1.00;;
43311;SDS011;30041;48.300;16.352;2023-02-01T09:01:33;3.17;;;0.82;;
43311;SDS011;30041;48.300;16.352;2023-02-01T09:03:58;6.53;;;0.98;;
43311;SDS011;30041;48.300;16.352;2023-02-01T09:06:24;4.72;;;0.63;;
43311;SDS011;30041;48.300;16.352;2023-02-01T09:08:49;7.00;;;1.10;;
43311;SDS011;30041;48.300;16.352;2023-02-01T09:11:16;4.05;;;1.25;;
43311;SDS011;30041;48.300;16.352;2023-02-01T09:13:43;7.00;;;1.15;;
43311;SDS011;30041;48.300;16.352;2023-02-01T09:16:09;7.03;;;0.90;;
43311;SDS011;30041;48.300;16.352;2023-02-01T09:18:34;1.70;;;0.75;;
43311;SDS011;30041;48.300;16.352;2023-02-01T09:21:03;3.38;;;0.75;;
43311;SDS011;30041;48.300;16.352;2023-02-01T09:23:30;3.47;;;0.90;;
43311;SDS011;30041;48.300;16.352;2023-02-01T09:25:58;3.78;;;0.90;;
43311;SDS011;30041;48.300;16.352;2023-02-01T09:28:28;2.75;;;0.90;;
43311;SDS011;30041;48.300;16.352;2023-02-01T09:30:56;3.58;;;0.88;;
43311;SDS011;30041;48.300;16.352;2023-02-01T09:33:23;2.67;;;0.90;;
43311;SDS011;30041;48.300;16.352;2023-02-01T09:35:49;2.42;;;0.85;;
43311;SDS011;30041;48.300;16.352;2023-02-01T09:38:20;2.25;;;0.90;;
43311;SDS011;30041;48.300;16.352;2023-02-01T09:40:46;1.30;;;0.52;;
43311;SDS011;30041;48.300;16.352;2023-02-01T09:43:18;1.85;;;0.70;;
43311;SDS011;30041;48.300;16.352;2023-02-01T09:48:47;3.20;;;0.70;;
43311;SDS011;30041;48.300;16.352;2023-02-01T09:51:22;1.60;;;0.73;;
43311;SDS011;30041;48.300;16.352;2023-02-01T09:54:04;2.00;;;0.70;;
43311;SDS011;30041;48.300;16.352;2023-02-01T09:56:40;4.65;;;0.85;;
43311;SDS011;30041;48.300;16.352;2023-02-01T09:59:56;3.35;;;0.70;;
43311;SDS011;30041;48.300;16.352;2023-02-01T10:01:56;3.42;;;0.80;;
43311;SDS011;30041;48.300;16.352;2023-02-01T10:04:22;2.10;;;0.60;;
43311;SDS011;30041;48.300;16.352;2023-02-01T10:06:54;1.10;;;0.50;;
43311;SDS011;30041;48.300;16.352;2023-02-01T10:09:49;2.10;;;0.80;;
43311;SDS011;30041;48.300;16.352;2023-02-01T10:21:01;0.95;;;0.47;;
43311;SDS011;30041;48.300;16.352;2023-02-01T10:23:50;1.00;;;0.57;;
43311;SDS011;30041;48.300;16.352;2023-02-01T10:26:42;1.42;;;0.50;;
43311;SDS011;30041;48.300;16.352;2023-02-01T10:29:19;2.42;;;0.60;;
43311;SDS011;30041;48.300;16.352;2023-02-01T10:31:48;1.92;;;0.75;;
43311;SDS011;30041;48.300;16.352;2023-02-01T10:34:15;1.20;;;0.50;;
43311;SDS011;30041;48.300;16.352;2023-02-01T10:36:55;1.80;;;0.50;;
43311;SDS011;30041;48.300;16.352;2023-02-01T10:39:24;2.55;;;0.60;;
43311;SDS011;30041;48.300;16.352;2023-02-01T10:41:50;1.15;;;0.47;;
43311;SDS011;30041;48.300;16.352;2023-02-01T10:44:19;2.00;;;0.80;;
43311;SDS011;30041;48.300;16.352;2023-02-01T10:46:49;3.25;;;0.80;;
43311;SDS011;30041;48.300;16.352;2023-02-01T10:52:30;3.97;;;0.95;;
43311;SDS011;30041;48.300;16.352;2023-02-01T10:58:20;2.33;;;0.80;;
43311;SDS011;30041;48.300;16.352;2023-02-01T11:00:57;3.25;;;1.00;;
43311;SDS011;30041;48.300;16.352;2023-02-01T11:03:40;21.85;;;1.55;;
43311;SDS011;30041;48.300;16.352;2023-02-01T11:08:45;6.68;;;1.40;;
43311;SDS011;30041;48.300;16.352;2023-02-01T11:11:19;6.20;;;1.45;;
43311;SDS011;30041;48.300;16.352;2023-02-01T11:13:45;6.18;;;1.30;;
43311;SDS011;30041;48.300;16.352;2023-02-01T11:16:39;8.07;;;1.17;;
43311;SDS011;30041;48.300;16.352;2023-02-01T11:19:05;4.63;;;0.93;;
43311;SDS011;30041;48.300;16.352;2023-02-01T11:21:31;4.90;;;0.90;;
43311;SDS011;30041;48.300;16.352;2023-02-01T11:24:01;7.20;;;1.20;;
43311;SDS011;30041;48.300;16.352;2023-02-01T11:26:28;9.25;;;1.25;;
43311;SDS011;30041;48.300;16.352;2023-02-01T11:28:58;2.42;;;0.95;;
43311;SDS011;30041;48.300;16.352;2023-02-01T11:31:35;8.98;;;1.23;;
43311;SDS011;30041;48.300;16.352;2023-02-01T11:34:14;4.25;;;1.05;;
43311;SDS011;30041;48.300;16.352;2023-02-01T11:36:42;3.83;;;1.00;;
43311;SDS011;30041;48.300;16.352;2023-02-01T11:39:28;4.20;;;1.00;;
43311;SDS011;30041;48.300;16.352;2023-02-01T11:42:15;3.78;;;1.10;;
43311;SDS011;30041;48.300;16.352;2023-02-01T11:44:43;4.97;;;1.03;;
43311;SDS011;30041;48.300;16.352;2023-02-01T11:47:20;4.05;;;1.13;;
43311;SDS011;30041;48.300;16.352;2023-02-01T11:49:48;7.10;;;1.20;;
43311;SDS011;30041;48.300;16.352;2023-02-01T12:03:30;5.43;;;1.20;;
43311;SDS011;30041;48.300;16.352;2023-02-01T12:11:35;4.88;;;0.95;;
43311;SDS011;30041;48.300;16.352;2023-02-01T12:16:57;2.88;;;0.95;;
43311;SDS011;30041;48.300;16.352;2023-02-01T12:19:39;2.90;;;0.88;;
43311;SDS011;30041;48.300;16.352;2023-02-01T12:23:10;2.67;;;0.90;;
43311;SDS011;30041;48.300;16.352;2023-02-01T12:25:29;2.92;;;0.93;;
43311;SDS011;30041;48.300;16.352;2023-02-01T12:28:21;4.93;;;0.90;;
43311;SDS011;30041;48.300;16.352;2023-02-01T12:31:29;3.17;;;0.93;;
43311;SDS011;30041;48.300;16.352;2023-02-01T12:39:32;2.45;;;0.80;;
43311;SDS011;30041;48.300;16.352;2023-02-01T12:44:50;4.78;;;1.00;;
43311;SDS011;30041;48.300;16.352;2023-02-01T12:47:33;3.70;;;0.75;;
43311;SDS011;30041;48.300;16.352;2023-02-01T12:52:42;4.85;;;0.90;;
43311;SDS011;30041;48.300;16.352;2023-02-01T12:55:22;4.65;;;0.65;;
43311;SDS011;30041;48.300;16.352;2023-02-01T12:57:54;3.30;;;0.70;;
43311;SDS011;30041;48.300;16.352;2023-02-01T13:00:36;5.25;;;0.55;;
43311;SDS011;30041;48.300;16.352;2023-02-01T13:05:59;3.60;;;0.73;;
43311;SDS011;30041;48.300;16.352;2023-02-01T13:11:39;9.00;;;0.98;;
43311;SDS011;30041;48.300;16.352;2023-02-01T13:16:59;6.68;;;1.10;;
43311;SDS011;30041;48.300;16.352;2023-02-01T13:19:35;8.27;;;1.13;;
43311;SDS011;30041;48.300;16.352;2023-02-01T13:22:51;9.43;;;1.10;;
43311;SDS011;30041;48.300;16.352;2023-02-01T13:24:57;8.77;;;0.90;;
43311;SDS011;30041;48.300;16.352;2023-02-01T13:27:26;5.68;;;0.85;;
43311;SDS011;30041;48.300;16.352;2023-02-01T13:29:55;7.47;;;1.00;;
43311;SDS011;30041;48.300;16.352;2023-02-01T13:40:51;4.60;;;0.97;;
43311;SDS011;30041;48.300;16.352;2023-02-01T13:43:28;7.80;;;0.93;;
43311;SDS011;30041;48.300;16.352;2023-02-01T13:45:56;4.40;;;0.80;;
43311;SDS011;30041;48.300;16.352;2023-02-01T13:48:29;5.72;;;0.80;;
43311;SDS011;30041;48.300;16.352;2023-02-01T13:51:03;5.63;;;0.80;;
43311;SDS011;30041;48.300;16.352;2023-02-01T13:53:36;6.22;;;1.17;;
43311;SDS011;30041;48.300;16.352;2023-02-01T13:56:12;2.30;;;0.70;;
43311;SDS011;30041;48.300;16.352;2023-02-01T13:58:44;5.57;;;0.60;;
43311;SDS011;30041;48.300;16.352;2023-02-01T14:11:34;2.85;;;0.50;;
43311;SDS011;30041;48.300;16.352;2023-02-01T14:14:07;2.28;;;0.52;;
43311;SDS011;30041;48.300;16.352;2023-02-01T14:19:27;3.60;;;0.77;;
43311;SDS011;30041;48.300;16.352;2023-02-01T14:21:58;3.17;;;0.70;;
43311;SDS011;30041;48.300;16.352;2023-02-01T14:24:26;7.20;;;1.27;;
43311;SDS011;30041;48.300;16.352;2023-02-01T14:26:59;5.03;;;1.10;;
43311;SDS011;30041;48.300;16.352;2023-02-01T14:29:43;3.05;;;0.93;;
43311;SDS011;30041;48.300;16.352;2023-02-01T14:32:19;4.50;;;1.10;;
43311;SDS011;30041;48.300;16.352;2023-02-01T14:42:15;3.83;;;1.23;;
43311;SDS011;30041;48.300;16.352;2023-02-01T14:44:49;7.60;;;1.50;;
43311;SDS011;30041;48.300;16.352;2023-02-01T15:00:59;5.30;;;0.93;;
43311;SDS011;30041;48.300;16.352;2023-02-01T15:03:34;4.80;;;0.98;;
43311;SDS011;30041;48.300;16.352;2023-02-01T15:06:00;5.32;;;1.25;;
43311;SDS011;30041;48.300;16.352;2023-02-01T15:08:27;3.17;;;1.05;;
43311;SDS011;30041;48.300;16.352;2023-02-01T15:10:56;3.97;;;0.95;;
43311;SDS011;30041;48.300;16.352;2023-02-01T15:13:26;3.17;;;0.90;;
43311;SDS011;30041;48.300;16.352;2023-02-01T15:18:50;3.00;;;1.07;;
43311;SDS011;30041;48.300;16.352;2023-02-01T15:21:31;2.25;;;0.90;;
43311;SDS011;30041;48.300;16.352;2023-02-01T15:24:10;2.42;;;0.90;;
43311;SDS011;30041;48.300;16.352;2023-02-01T15:26:53;2.47;;;0.98;;
43311;SDS011;30041;48.300;16.352;2023-02-01T15:29:20;3.33;;;1.00;;
43311;SDS011;30041;48.300;16.352;2023-02-01T15:31:48;2.15;;;0.80;;
43311;SDS011;30041;48.300;16.352;2023-02-01T15:34:16;1.60;;;0.77;;
43311;SDS011;30041;48.300;16.352;2023-02-01T15:36:43;4.68;;;0.90;;
43311;SDS011;30041;48.300;16.352;2023-02-01T15:41:39;3.25;;;0.70;;
43311;SDS011;30041;48.300;16.352;2023-02-01T15:44:13;8.00;;;1.10;;
43311;SDS011;30041;48.300;16.352;2023-02-01T15:46:55;9.10;;;1.27;;
43311;SDS011;30041;48.300;16.352;2023-02-01T15:51:51;7.57;;;1.00;;
43311;SDS011;30041;48.300;16.352;2023-02-01T15:54:20;6.20;;;1.00;;
43311;SDS011;30041;48.300;16.352;2023-02-01T15:56:51;11.02;;;1.23;;
43311;SDS011;30041;48.300;16.352;2023-02-01T16:00:04;3.55;;;0.90;;
43311;SDS011;30041;48.300;16.352;2023-02-01T16:02:54;7.90;;;1.05;;
43311;SDS011;30041;48.300;16.352;2023-02-01T16:05:01;7.22;;;0.90;;
43311;SDS011;30041;48.300;16.352;2023-02-01T16:07:29;6.88;;;1.00;;
43311;SDS011;30041;48.300;16.352;2023-02-01T16:09:58;3.75;;;1.20;;
43311;SDS011;30041;48.300;16.352;2023-02-01T16:15:03;5.70;;;1.00;;
43311;SDS011;30041;48.300;16.352;2023-02-01T16:17:30;4.30;;;1.00;;
43311;SDS011;30041;48.300;16.352;2023-02-01T16:19:56;3.88;;;1.00;;
43311;SDS011;30041;48.300;16.352;2023-02-01T16:22:21;3.80;;;0.88;;
43311;SDS011;30041;48.300;16.352;2023-02-01T16:24:47;3.22;;;0.70;;
43311;SDS011;30041;48.300;16.352;2023-02-01T16:27:13;2.58;;;0.70;;
43311;SDS011;30041;48.300;16.352;2023-02-01T16:29:38;2.45;;;0.52;;
43311;SDS011;30041;48.300;16.352;2023-02-01T16:32:04;1.67;;;0.80;;
43311;SDS011;30041;48.300;16.352;2023-02-01T16:34:29;2.72;;;0.65;;
43311;SDS011;30041;48.300;16.352;2023-02-01T16:36:55;2.20;;;0.68;;
43311;SDS011;30041;48.300;16.352;2023-02-01T16:39:21;2.20;;;0.70;;
43311;SDS011;30041;48.300;16.352;2023-02-01T16:41:46;1.52;;;0.60;;
43311;SDS011;30041;48.300;16.352;2023-02-01T16:44:12;1.55;;;0.47;;
43311;SDS011;30041;48.300;16.352;2023-02-01T16:46:44;2.67;;;0.85;;
43311;SDS011;30041;48.300;16.352;2023-02-01T16:49:19;3.63;;;0.70;;
43311;SDS011;30041;48.300;16.352;2023-02-01T16:51:47;1.63;;;0.63;;
43311;SDS011;30041;48.300;16.352;2023-02-01T16:54:16;2.42;;;0.70;;
43311;SDS011;30041;48.300;16.352;2023-02-01T16:56:42;2.65;;;0.63;;
43311;SDS011;30041;48.300;16.352;2023-02-01T16:59:09;1.80;;;0.60;;